Boston, Massachusetts
Traffic Map
Current Weather Conditions
Boston, Massachusetts
Overcast Light Rain
Overcast
50°
Feels Like: 50°
Wind Chill: 50° Ceiling: 1000
Heat Index: 50° Visibility: 8mi
Dew Point: 48° Wind: 14mph
Humidity: 93% Direction: 50° (NE)
Pressure: 30.18in Gusts: 0mph
Raw Report DataKBOS 280254Z 05012KT 8SM -RA OVC010 10/09 A3018 RMK AO2 SLP218 P0000 60001 T01000089 58004
Traffic Incident Summary
Active as of:
Severity:
Category:
InformationThere was an issue retrieving the traffic information for this location. Please try a different location or try again shortly.
Advertisements